createdAt,value
2022-12-14T00:00:47.761Z,50.74
2022-12-14T00:03:14.528Z,50.76
2022-12-14T00:05:40.977Z,51.21
2022-12-14T00:08:07.437Z,51.08
2022-12-14T00:10:33.918Z,51.00
2022-12-14T00:13:00.322Z,51.40
2022-12-14T00:15:26.667Z,51.21
2022-12-14T00:17:53.359Z,50.87
2022-12-14T00:20:19.755Z,50.90
2022-12-14T00:22:46.181Z,51.01
2022-12-14T00:25:12.778Z,51.07
2022-12-14T00:27:40.136Z,51.02
2022-12-14T00:30:06.515Z,50.86
2022-12-14T00:32:32.895Z,50.80
2022-12-14T00:34:59.368Z,50.83
2022-12-14T00:37:25.765Z,51.77
2022-12-14T00:39:52.591Z,51.86
2022-12-14T00:42:18.932Z,51.74
2022-12-14T00:44:45.612Z,51.27
2022-12-14T00:47:12.060Z,51.46
2022-12-14T00:49:38.576Z,51.18
2022-12-14T00:52:04.993Z,51.47
2022-12-14T00:54:31.689Z,51.61
2022-12-14T00:56:58.075Z,51.76
2022-12-14T00:59:27.317Z,52.67
2022-12-14T01:01:55.613Z,52.06
2022-12-14T01:04:22.380Z,52.02
2022-12-14T01:06:48.960Z,51.91
2022-12-14T01:09:15.394Z,52.14
2022-12-14T01:11:41.937Z,52.58
2022-12-14T01:14:08.605Z,52.86
2022-12-14T01:16:35.042Z,52.46
2022-12-14T01:19:01.451Z,52.02
2022-12-14T01:21:27.943Z,52.41
2022-12-14T01:23:54.312Z,52.86
2022-12-14T01:26:20.765Z,53.13
2022-12-14T01:28:47.196Z,53.62
2022-12-14T01:31:13.636Z,54.37
2022-12-14T01:33:40.517Z,54.93
2022-12-14T01:36:07.209Z,54.76
2022-12-14T01:38:33.643Z,55.07
2022-12-14T01:41:00.272Z,54.97
2022-12-14T01:43:26.863Z,54.31
2022-12-14T01:45:53.632Z,54.10
2022-12-14T01:48:20.073Z,54.02
2022-12-14T01:50:46.493Z,53.32
2022-12-14T01:53:12.983Z,53.34
2022-12-14T01:55:39.292Z,53.11
2022-12-14T01:58:05.913Z,53.95
2022-12-14T02:00:32.542Z,54.30
2022-12-14T02:02:59.030Z,53.67
2022-12-14T02:05:25.595Z,54.02
2022-12-14T02:07:52.007Z,54.47
2022-12-14T02:10:18.427Z,54.81
2022-12-14T02:12:45.061Z,54.99
2022-12-14T02:15:11.556Z,55.00
2022-12-14T02:17:38.193Z,55.04
2022-12-14T02:20:04.964Z,54.23
2022-12-14T02:22:31.602Z,54.97
2022-12-14T02:24:58.207Z,55.25
2022-12-14T02:27:24.867Z,54.27
2022-12-14T02:29:51.379Z,53.92
2022-12-14T02:32:17.918Z,53.25
2022-12-14T02:34:44.576Z,53.44
2022-12-14T02:37:11.052Z,54.21
2022-12-14T02:39:37.881Z,53.65
2022-12-14T02:42:04.574Z,53.86
2022-12-14T02:44:31.321Z,53.95
2022-12-14T02:46:57.811Z,53.17
2022-12-14T02:49:24.242Z,53.00
2022-12-14T02:51:50.761Z,52.88
2022-12-14T02:54:17.179Z,53.03
2022-12-14T02:56:43.855Z,52.76
2022-12-14T02:59:10.448Z,52.50
2022-12-14T03:01:37.054Z,52.64
2022-12-14T03:04:07.990Z,52.43
2022-12-14T03:06:34.683Z,52.66
2022-12-14T03:09:01.608Z,52.69
2022-12-14T03:11:28.124Z,52.09
2022-12-14T03:13:54.591Z,52.97
2022-12-14T03:16:21.231Z,53.97
2022-12-14T03:18:47.822Z,53.47
2022-12-14T03:21:14.208Z,52.96
2022-12-14T03:23:40.836Z,54.12
2022-12-14T03:26:07.283Z,53.87
2022-12-14T03:28:34.675Z,53.40
2022-12-14T03:31:01.234Z,52.82
2022-12-14T03:33:28.286Z,52.73
2022-12-14T03:35:54.944Z,52.64
2022-12-14T03:38:21.562Z,53.40
2022-12-14T03:40:47.954Z,52.98
2022-12-14T03:43:14.386Z,52.80
2022-12-14T03:45:40.878Z,52.26
2022-12-14T03:48:07.421Z,52.17
2022-12-14T03:50:33.796Z,52.67
2022-12-14T03:53:00.382Z,52.22
2022-12-14T03:55:26.804Z,52.90
2022-12-14T03:57:53.363Z,52.31
2022-12-14T04:00:20.249Z,51.86
2022-12-14T04:02:46.867Z,51.68
2022-12-14T04:05:13.443Z,52.18
2022-12-14T04:07:39.938Z,52.19
2022-12-14T04:10:06.360Z,52.04
2022-12-14T04:12:32.862Z,52.06
2022-12-14T04:14:59.291Z,52.02
2022-12-14T04:17:25.769Z,52.17
2022-12-14T04:19:52.640Z,52.12
2022-12-14T04:22:19.155Z,52.28
2022-12-14T04:24:45.608Z,51.72
2022-12-14T04:27:12.156Z,51.60
2022-12-14T04:29:41.507Z,51.81
2022-12-14T04:32:12.933Z,52.25
2022-12-14T04:34:39.424Z,52.37
2022-12-14T04:37:05.824Z,52.07
2022-12-14T04:39:32.250Z,52.58
2022-12-14T04:41:58.624Z,52.52
2022-12-14T04:44:25.055Z,52.80
2022-12-14T04:46:51.568Z,52.54
2022-12-14T04:49:18.133Z,52.30
2022-12-14T04:51:44.776Z,52.30
2022-12-14T04:54:11.328Z,52.20
2022-12-14T04:56:37.765Z,52.14
2022-12-14T04:59:04.828Z,51.82
2022-12-14T05:01:31.291Z,52.46
2022-12-14T05:03:58.172Z,52.26
2022-12-14T05:06:24.605Z,52.68
2022-12-14T05:08:51.028Z,53.05
2022-12-14T05:11:50.126Z,52.88
2022-12-14T05:14:03.975Z,52.04
2022-12-14T05:16:30.521Z,52.90
2022-12-14T05:18:57.128Z,52.58
2022-12-14T05:21:25.599Z,52.07
2022-12-14T05:23:52.101Z,52.81
2022-12-14T05:26:18.516Z,52.07
2022-12-14T05:28:50.248Z,52.22
2022-12-14T05:31:17.063Z,51.75
2022-12-14T05:33:43.663Z,51.91
2022-12-14T05:36:10.260Z,53.17
2022-12-14T05:38:36.720Z,52.85
2022-12-14T05:41:03.274Z,52.88
2022-12-14T05:43:30.086Z,53.11
2022-12-14T05:45:56.797Z,52.97
2022-12-14T05:48:23.599Z,52.91
2022-12-14T05:50:50.183Z,53.13
2022-12-14T05:53:16.765Z,52.63
2022-12-14T05:55:43.350Z,53.31
2022-12-14T05:58:09.699Z,53.66
2022-12-14T06:00:36.228Z,53.78
2022-12-14T06:03:02.799Z,52.92
2022-12-14T06:05:29.480Z,52.44
2022-12-14T06:07:55.880Z,51.79
2022-12-14T06:10:22.319Z,52.57
2022-12-14T06:12:48.677Z,52.74
2022-12-14T06:15:15.198Z,55.72
2022-12-14T06:17:41.575Z,55.02
2022-12-14T06:20:10.510Z,53.10
2022-12-14T06:22:36.905Z,53.23
2022-12-14T06:25:03.709Z,52.72
2022-12-14T06:27:30.182Z,53.14
2022-12-14T06:29:56.824Z,53.08
2022-12-14T06:32:23.220Z,53.27
2022-12-14T06:34:49.837Z,52.28
2022-12-14T06:37:16.258Z,52.47
2022-12-14T06:39:42.854Z,52.59
2022-12-14T06:42:10.143Z,53.05
2022-12-14T06:44:36.752Z,51.93
2022-12-14T06:47:03.271Z,52.73
2022-12-14T06:49:29.812Z,52.79
2022-12-14T06:51:56.142Z,52.71
2022-12-14T06:54:22.766Z,52.88
2022-12-14T06:56:49.175Z,52.32
2022-12-14T06:59:15.598Z,52.28
2022-12-14T07:01:42.352Z,52.62
2022-12-14T07:04:08.941Z,51.14
2022-12-14T07:06:35.376Z,51.33
2022-12-14T07:09:01.777Z,52.04
2022-12-14T07:11:28.320Z,52.18
2022-12-14T07:13:54.966Z,50.87
2022-12-14T07:16:21.452Z,51.95
2022-12-14T07:18:48.334Z,52.45
2022-12-14T07:21:14.688Z,52.12
2022-12-14T07:23:41.477Z,52.00
2022-12-14T07:26:07.872Z,51.68
2022-12-14T07:28:34.485Z,51.13
2022-12-14T07:31:00.963Z,50.85
2022-12-14T07:33:27.867Z,51.36
2022-12-14T07:35:54.597Z,52.64
2022-12-14T07:38:21.029Z,52.60
2022-12-14T07:40:47.503Z,52.25
2022-12-14T07:43:13.984Z,51.91
2022-12-14T07:45:40.832Z,51.55
2022-12-14T07:48:07.750Z,51.84
2022-12-14T07:50:34.135Z,51.39
2022-12-14T07:53:00.774Z,51.90
2022-12-14T07:55:27.571Z,51.68
2022-12-14T07:57:53.959Z,51.39
2022-12-14T08:00:20.693Z,51.77
2022-12-14T08:02:47.506Z,52.56
2022-12-14T08:05:14.265Z,51.38
2022-12-14T08:07:40.828Z,51.94
2022-12-14T08:10:07.301Z,51.07
2022-12-14T08:12:34.295Z,51.28
2022-12-14T08:15:00.701Z,51.30
2022-12-14T08:17:27.103Z,52.01
2022-12-14T08:19:53.581Z,51.87
2022-12-14T08:22:20.321Z,51.24
2022-12-14T08:24:49.652Z,50.65
2022-12-14T08:27:16.479Z,50.75
2022-12-14T08:29:43.422Z,51.23
2022-12-14T08:32:09.836Z,51.37
2022-12-14T08:34:36.314Z,50.45
2022-12-14T08:37:05.280Z,50.87
2022-12-14T08:39:31.766Z,50.53
2022-12-14T08:42:00.816Z,50.63
2022-12-14T08:44:27.698Z,50.98
2022-12-14T08:46:54.217Z,51.68
2022-12-14T08:49:20.776Z,51.96
2022-12-14T08:51:47.422Z,51.08
2022-12-14T08:54:13.995Z,50.66
2022-12-14T08:56:40.458Z,51.38
2022-12-14T08:59:06.910Z,51.26
2022-12-14T09:01:34.777Z,51.56
2022-12-14T09:04:01.559Z,51.30
2022-12-14T09:06:28.240Z,51.36
2022-12-14T09:08:58.131Z,51.01
2022-12-14T09:11:24.557Z,50.46
2022-12-14T09:13:50.985Z,51.08
2022-12-14T09:16:17.456Z,51.04
2022-12-14T09:18:44.020Z,51.84
2022-12-14T09:21:10.507Z,51.47
2022-12-14T09:23:36.937Z,50.65
2022-12-14T09:26:03.462Z,51.56
2022-12-14T09:28:30.328Z,51.16
2022-12-14T09:30:56.975Z,51.65
2022-12-14T09:33:23.492Z,52.28
2022-12-14T09:35:50.025Z,51.72
2022-12-14T09:38:17.517Z,52.00
2022-12-14T09:40:43.957Z,51.60
2022-12-14T09:43:13.400Z,51.07
2022-12-14T09:45:40.253Z,51.04
2022-12-14T09:48:06.792Z,50.62
2022-12-14T09:50:33.533Z,50.82
2022-12-14T09:52:59.941Z,50.62
2022-12-14T09:55:26.398Z,50.38
2022-12-14T09:57:52.789Z,50.91
2022-12-14T10:00:19.374Z,50.54
2022-12-14T10:02:46.140Z,49.87
2022-12-14T10:05:12.664Z,50.28
2022-12-14T10:07:39.189Z,50.41
2022-12-14T10:10:05.692Z,51.13
2022-12-14T10:12:34.423Z,50.99
2022-12-14T10:15:08.829Z,51.17
2022-12-14T10:17:35.299Z,50.30
2022-12-14T10:20:03.793Z,50.63
2022-12-14T10:22:31.228Z,50.59
2022-12-14T10:24:57.926Z,51.12
2022-12-14T10:27:24.395Z,50.21
2022-12-14T10:29:50.768Z,51.34
2022-12-14T10:32:17.245Z,50.24
2022-12-14T10:34:43.818Z,50.97
2022-12-14T10:37:10.294Z,50.71
2022-12-14T10:39:36.715Z,50.38
2022-12-14T10:42:03.096Z,50.50
2022-12-14T10:44:29.544Z,52.47
2022-12-14T10:46:56.268Z,52.25
2022-12-14T10:49:23.225Z,51.27
2022-12-14T10:51:49.741Z,50.45
2022-12-14T10:54:16.485Z,51.36
2022-12-14T10:56:42.996Z,50.61
2022-12-14T10:59:09.619Z,50.82
2022-12-14T11:01:36.310Z,56.35
2022-12-14T11:04:02.760Z,51.49
2022-12-14T11:06:29.470Z,50.73
2022-12-14T11:08:55.838Z,51.05
2022-12-14T11:11:22.528Z,49.63
2022-12-14T11:13:49.049Z,50.92
2022-12-14T11:16:15.492Z,50.79
2022-12-14T11:18:41.883Z,50.80
2022-12-14T11:21:08.345Z,49.79
2022-12-14T11:23:35.146Z,49.60
2022-12-14T11:26:01.544Z,52.47
2022-12-14T11:28:32.771Z,59.94
2022-12-14T11:31:02.874Z,64.22
2022-12-14T11:33:29.351Z,61.76
2022-12-14T11:35:56.126Z,48.85
2022-12-14T11:38:22.576Z,55.81
2022-12-14T11:40:49.031Z,50.94
2022-12-14T11:43:15.765Z,51.52
2022-12-14T11:45:43.395Z,47.89
2022-12-14T11:48:16.201Z,48.81
2022-12-14T11:50:43.155Z,48.73
2022-12-14T11:53:11.753Z,49.26
2022-12-14T11:55:38.414Z,48.54
2022-12-14T11:58:04.843Z,48.21
2022-12-14T12:00:31.612Z,48.09
2022-12-14T12:03:00.028Z,48.21
2022-12-14T12:05:27.376Z,48.45
2022-12-14T12:07:53.767Z,48.33
2022-12-14T12:10:20.345Z,48.81
2022-12-14T12:12:52.292Z,49.57
2022-12-14T12:15:21.188Z,49.20
2022-12-14T12:17:48.165Z,49.29
2022-12-14T12:20:14.844Z,50.46
2022-12-14T12:22:42.196Z,49.02
2022-12-14T12:25:25.894Z,49.74
2022-12-14T12:27:53.392Z,50.23
2022-12-14T12:30:19.955Z,49.27
2022-12-14T12:32:50.211Z,49.41
2022-12-14T12:35:17.051Z,48.60
2022-12-14T12:37:43.535Z,49.09
2022-12-14T12:40:10.032Z,49.60
2022-12-14T12:42:36.568Z,49.61
2022-12-14T12:45:03.019Z,49.88
2022-12-14T12:47:38.475Z,60.25
2022-12-14T12:50:12.826Z,55.05
2022-12-14T12:52:41.317Z,52.27
2022-12-14T12:55:07.984Z,52.77
2022-12-14T12:57:34.442Z,52.53
2022-12-14T13:00:01.277Z,55.04
2022-12-14T13:02:28.636Z,52.58
2022-12-14T13:04:55.408Z,50.32
2022-12-14T13:07:21.809Z,48.81
2022-12-14T13:09:48.303Z,50.67
2022-12-14T13:12:14.722Z,49.75
2022-12-14T13:14:41.255Z,49.75
2022-12-14T13:17:07.727Z,49.78
2022-12-14T13:19:50.687Z,49.65
2022-12-14T13:22:18.414Z,50.06
2022-12-14T13:24:45.103Z,55.51
2022-12-14T13:27:17.260Z,50.40
2022-12-14T13:29:44.216Z,50.53
2022-12-14T13:32:11.787Z,50.31
2022-12-14T13:34:39.066Z,48.86
2022-12-14T13:37:05.502Z,50.38
2022-12-14T13:39:31.990Z,50.00
2022-12-14T13:41:58.786Z,49.43
2022-12-14T13:44:33.567Z,49.70
2022-12-14T13:47:04.282Z,49.38
2022-12-14T13:49:30.978Z,49.52
2022-12-14T13:51:57.411Z,49.89
2022-12-14T13:54:23.947Z,49.45
2022-12-14T13:56:50.316Z,50.24
2022-12-14T13:59:17.157Z,49.39
2022-12-14T14:01:44.009Z,50.25
2022-12-14T14:04:11.701Z,50.41
2022-12-14T14:06:38.187Z,49.63
2022-12-14T14:09:04.812Z,49.87
2022-12-14T14:11:40.016Z,49.76
2022-12-14T14:14:06.584Z,49.51
2022-12-14T14:16:33.013Z,49.88
2022-12-14T14:18:59.437Z,49.96
2022-12-14T14:21:26.097Z,49.53
2022-12-14T14:23:52.695Z,49.64
2022-12-14T14:26:21.245Z,49.79
2022-12-14T14:28:49.580Z,50.79
2022-12-14T14:31:16.131Z,51.00
2022-12-14T14:33:45.893Z,50.30
2022-12-14T14:36:13.437Z,50.42
2022-12-14T14:38:39.914Z,50.53
2022-12-14T14:41:16.692Z,50.20
2022-12-14T14:43:44.295Z,49.77
2022-12-14T14:46:22.231Z,50.40
2022-12-14T14:48:49.468Z,59.94
2022-12-14T14:51:15.831Z,59.26
2022-12-14T14:53:42.331Z,53.34
2022-12-14T14:56:08.754Z,53.18
2022-12-14T14:58:36.645Z,50.76
2022-12-14T15:01:06.624Z,50.56
2022-12-14T15:03:33.130Z,51.46
2022-12-14T15:05:59.723Z,50.49
2022-12-14T15:08:26.216Z,61.36
2022-12-14T15:10:52.883Z,56.07
2022-12-14T15:13:19.334Z,50.49
2022-12-14T15:15:46.272Z,52.39
2022-12-14T15:18:12.637Z,52.69
2022-12-14T15:20:39.398Z,49.38
2022-12-14T15:23:05.840Z,49.91
2022-12-14T15:25:32.242Z,50.09
2022-12-14T15:27:58.709Z,49.80
2022-12-14T15:30:25.470Z,50.20
2022-12-14T15:32:52.104Z,49.91
2022-12-14T15:35:18.795Z,49.15
2022-12-14T15:37:45.610Z,50.73
2022-12-14T15:40:12.145Z,53.35
2022-12-14T15:42:38.585Z,51.79
2022-12-14T15:45:04.986Z,60.15
2022-12-14T15:47:31.390Z,61.11
2022-12-14T15:50:02.140Z,54.47
2022-12-14T15:52:32.948Z,51.31
2022-12-14T15:55:00.390Z,48.86
2022-12-14T15:57:26.832Z,49.08
2022-12-14T15:59:53.455Z,50.82
2022-12-14T16:02:20.201Z,50.32
2022-12-14T16:04:46.824Z,49.97
2022-12-14T16:07:16.099Z,50.05
2022-12-14T16:09:42.508Z,50.32
2022-12-14T16:12:09.232Z,50.06
2022-12-14T16:14:35.674Z,51.02
2022-12-14T16:17:02.269Z,51.29
2022-12-14T16:19:33.684Z,50.74
2022-12-14T16:22:03.294Z,51.09
2022-12-14T16:24:29.683Z,51.64
2022-12-14T16:26:56.184Z,50.82
2022-12-14T16:29:22.719Z,51.18
2022-12-14T16:31:49.949Z,51.38
2022-12-14T16:34:16.450Z,52.06
2022-12-14T16:36:45.468Z,51.86
2022-12-14T16:39:23.064Z,51.50
2022-12-14T16:41:49.635Z,51.27
2022-12-14T16:44:16.233Z,51.45
2022-12-14T16:46:43.859Z,51.20
2022-12-14T16:49:10.693Z,51.10
2022-12-14T16:52:06.831Z,51.91
2022-12-14T16:54:24.108Z,51.52
2022-12-14T16:56:50.506Z,52.00
2022-12-14T16:59:17.090Z,51.26
2022-12-14T17:01:44.019Z,51.01
2022-12-14T17:04:10.496Z,51.10
2022-12-14T17:06:36.947Z,51.75
2022-12-14T17:09:03.973Z,51.97
2022-12-14T17:11:30.439Z,51.52
2022-12-14T17:13:57.379Z,51.71
2022-12-14T17:16:24.025Z,52.19
2022-12-14T17:18:51.549Z,51.62
2022-12-14T17:21:18.305Z,52.17
2022-12-14T17:23:44.829Z,52.23
2022-12-14T17:26:12.800Z,51.67
2022-12-14T17:28:39.255Z,52.04
2022-12-14T17:31:06.629Z,52.08
2022-12-14T17:33:34.154Z,51.80
2022-12-14T17:36:01.518Z,51.41
2022-12-14T17:38:28.268Z,51.63
2022-12-14T17:40:55.595Z,52.50
2022-12-14T17:43:23.180Z,54.14
2022-12-14T17:45:50.044Z,51.61
2022-12-14T17:48:17.143Z,51.82
2022-12-14T17:50:46.534Z,51.76
2022-12-14T17:53:13.153Z,51.96
2022-12-14T17:55:40.710Z,52.49
2022-12-14T17:58:07.347Z,52.37
2022-12-14T18:00:34.612Z,52.43
2022-12-14T18:03:02.203Z,52.15
2022-12-14T18:05:29.087Z,52.10
2022-12-14T18:07:56.893Z,51.83
2022-12-14T18:10:23.968Z,52.41
2022-12-14T18:12:55.316Z,52.60
2022-12-14T18:15:22.222Z,52.48
2022-12-14T18:17:49.638Z,52.59
2022-12-14T18:20:16.780Z,52.21
2022-12-14T18:22:44.102Z,53.98
2022-12-14T18:25:16.788Z,52.63
2022-12-14T18:27:45.407Z,52.73
2022-12-14T18:30:14.415Z,52.44
2022-12-14T18:32:40.837Z,52.68
2022-12-14T18:35:08.814Z,52.23
2022-12-14T18:37:35.721Z,51.53
2022-12-14T18:40:05.069Z,53.18
2022-12-14T18:42:31.883Z,52.94
2022-12-14T18:44:59.493Z,53.07
2022-12-14T18:47:41.853Z,52.49
2022-12-14T18:50:10.251Z,52.13
2022-12-14T18:52:38.042Z,52.92
2022-12-14T18:55:05.085Z,53.22
2022-12-14T18:57:32.239Z,54.28
2022-12-14T18:59:59.056Z,54.28
2022-12-14T19:02:26.080Z,53.58
2022-12-14T19:04:53.458Z,52.58
2022-12-14T19:07:20.348Z,52.01
2022-12-14T19:09:47.930Z,52.32
2022-12-14T19:12:14.573Z,52.63
2022-12-14T19:14:42.000Z,52.38
2022-12-14T19:17:09.274Z,52.66
2022-12-14T19:19:44.028Z,52.34
2022-12-14T19:22:13.141Z,51.53
2022-12-14T19:24:40.430Z,51.21
2022-12-14T19:27:08.363Z,52.16
2022-12-14T19:29:38.413Z,52.57
2022-12-14T19:32:06.601Z,52.08
2022-12-14T19:34:33.710Z,52.60
2022-12-14T19:37:01.225Z,51.84
2022-12-14T19:39:29.596Z,51.90
2022-12-14T19:41:56.385Z,52.24
2022-12-14T19:44:24.096Z,51.76
2022-12-14T19:46:51.279Z,52.25
2022-12-14T19:49:18.326Z,51.92
2022-12-14T19:51:47.852Z,51.12
2022-12-14T19:54:17.824Z,52.83
2022-12-14T19:56:44.461Z,52.15
2022-12-14T19:59:10.939Z,51.74
2022-12-14T20:01:41.962Z,51.73
2022-12-14T20:04:14.890Z,51.17
2022-12-14T20:06:42.111Z,51.58
2022-12-14T20:09:09.113Z,61.32
2022-12-14T20:11:37.250Z,63.27
2022-12-14T20:14:04.890Z,62.20
2022-12-14T20:16:32.136Z,59.22
2022-12-14T20:18:59.122Z,56.21
2022-12-14T20:21:26.157Z,49.47
2022-12-14T20:23:53.416Z,51.04
2022-12-14T20:26:21.300Z,51.29
2022-12-14T20:28:52.230Z,50.24
2022-12-14T20:31:24.272Z,51.70
2022-12-14T20:33:51.584Z,52.20
2022-12-14T20:36:18.850Z,51.90
2022-12-14T20:38:46.022Z,51.60
2022-12-14T20:41:16.200Z,50.52
2022-12-14T20:43:43.326Z,52.00
2022-12-14T20:46:12.725Z,51.30
2022-12-14T20:48:40.373Z,51.82
2022-12-14T20:51:13.523Z,51.04
2022-12-14T20:53:40.736Z,51.04
2022-12-14T20:56:08.336Z,51.70
2022-12-14T20:58:38.513Z,50.69
2022-12-14T21:01:09.162Z,50.66
2022-12-14T21:03:36.449Z,51.21
2022-12-14T21:06:05.861Z,50.80
2022-12-14T21:08:33.988Z,50.71
2022-12-14T21:11:03.479Z,49.95
2022-12-14T21:13:31.999Z,50.24
2022-12-14T21:15:59.425Z,50.38
2022-12-14T21:18:26.045Z,50.22
2022-12-14T21:20:52.576Z,50.15
2022-12-14T21:23:19.983Z,50.16
2022-12-14T21:25:46.474Z,49.71
2022-12-14T21:28:12.913Z,50.60
2022-12-14T21:30:39.410Z,51.05
2022-12-14T21:33:06.988Z,51.41
2022-12-14T21:35:34.803Z,51.42
2022-12-14T21:38:01.322Z,50.69
2022-12-14T21:40:27.757Z,53.80
2022-12-14T21:42:54.226Z,50.89
2022-12-14T21:45:20.653Z,50.54
2022-12-14T21:47:47.129Z,51.34
2022-12-14T21:50:13.552Z,50.59
2022-12-14T21:52:39.948Z,51.02
2022-12-14T21:55:06.379Z,50.78
2022-12-14T21:57:32.765Z,49.84
2022-12-14T21:59:59.245Z,50.45
2022-12-14T22:02:25.768Z,49.96
2022-12-14T22:04:52.493Z,50.20
2022-12-14T22:07:18.909Z,49.99
2022-12-14T22:09:45.366Z,50.61
2022-12-14T22:12:16.480Z,49.93
2022-12-14T22:14:42.925Z,50.62
2022-12-14T22:17:09.332Z,50.37
2022-12-14T22:19:35.701Z,50.11
2022-12-14T22:22:02.248Z,50.04
2022-12-14T22:24:28.667Z,50.00
2022-12-14T22:26:55.260Z,49.87
2022-12-14T22:29:21.916Z,49.35
2022-12-14T22:31:48.466Z,49.31
2022-12-14T22:34:14.928Z,49.31
2022-12-14T22:36:41.818Z,49.14
2022-12-14T22:39:08.177Z,49.79
2022-12-14T22:41:34.657Z,49.65
2022-12-14T22:44:01.168Z,49.63
2022-12-14T22:46:27.579Z,49.25
2022-12-14T22:48:54.240Z,49.32
2022-12-14T22:51:20.695Z,49.04
2022-12-14T22:53:49.430Z,49.25
2022-12-14T22:56:16.274Z,49.66
2022-12-14T22:58:42.885Z,50.31
2022-12-14T23:01:15.730Z,50.54
2022-12-14T23:03:42.412Z,50.09
2022-12-14T23:06:08.952Z,50.35
2022-12-14T23:08:35.432Z,50.15
2022-12-14T23:11:01.837Z,49.65
2022-12-14T23:13:29.253Z,50.16
2022-12-14T23:15:56.043Z,49.88
2022-12-14T23:18:22.789Z,49.97
2022-12-14T23:20:49.513Z,49.42
2022-12-14T23:23:15.953Z,49.65
2022-12-14T23:25:42.418Z,49.72
2022-12-14T23:28:08.919Z,49.81
2022-12-14T23:30:35.443Z,49.50
2022-12-14T23:33:02.021Z,49.36
2022-12-14T23:35:28.372Z,49.77
2022-12-14T23:37:54.799Z,50.01
2022-12-14T23:40:21.256Z,49.57
2022-12-14T23:42:47.696Z,49.41
2022-12-14T23:45:14.437Z,49.79
2022-12-14T23:47:41.032Z,49.34
2022-12-14T23:50:07.465Z,49.82
2022-12-14T23:52:33.803Z,49.72
2022-12-14T23:55:00.279Z,50.28
2022-12-14T23:57:26.637Z,49.98
2022-12-14T23:59:53.086Z,50.13
